createdAt,value
2018-04-22T00:00:14.704Z,99.99
2018-04-22T00:01:14.402Z,99.99
2018-04-22T00:02:14.886Z,99.99
2018-04-22T00:03:14.885Z,99.99
2018-04-22T00:04:14.637Z,99.99
2018-04-22T00:05:14.962Z,99.99
2018-04-22T00:06:15.971Z,99.99
2018-04-22T00:07:16.020Z,99.99
2018-04-22T00:08:15.899Z,99.99
2018-04-22T00:09:15.977Z,99.99
2018-04-22T00:10:16.020Z,99.99
2018-04-22T00:11:16.097Z,99.99
2018-04-22T00:12:16.242Z,99.99
2018-04-22T00:13:16.107Z,99.99
2018-04-22T00:14:15.904Z,99.99
2018-04-22T00:15:16.287Z,99.99
2018-04-22T00:16:16.274Z,99.99
2018-04-22T00:17:16.442Z,99.99
2018-04-22T00:18:16.946Z,99.99
2018-04-22T00:19:16.480Z,99.99
2018-04-22T00:20:16.738Z,99.99
2018-04-22T00:22:07.546Z,99.99
2018-04-22T00:22:18.440Z,99.99
2018-04-22T00:23:18.353Z,99.99
2018-04-22T00:24:18.516Z,99.99
2018-04-22T00:25:18.919Z,99.99
2018-04-22T00:26:18.893Z,99.99
2018-04-22T00:27:19.001Z,99.99
2018-04-22T00:28:19.387Z,99.99
2018-04-22T00:29:19.413Z,99.99
2018-04-22T00:30:19.562Z,99.99
2018-04-22T00:31:20.020Z,99.99
2018-04-22T00:32:20.032Z,99.99
2018-04-22T00:33:20.056Z,99.99
2018-04-22T00:34:20.481Z,99.99
2018-04-22T00:35:20.629Z,99.99
2018-04-22T00:36:20.680Z,99.99
2018-04-22T00:37:20.424Z,99.99
2018-04-22T00:38:20.527Z,99.99
2018-04-22T00:39:20.767Z,99.99
2018-04-22T00:40:20.788Z,99.99
2018-04-22T00:41:20.828Z,99.99
2018-04-22T00:42:20.580Z,99.99
2018-04-22T00:43:20.609Z,99.99
2018-04-22T00:44:21.053Z,99.99
2018-04-22T00:45:21.069Z,99.99
2018-04-22T00:46:21.089Z,99.99
2018-04-22T00:47:20.852Z,99.99
2018-04-22T00:48:20.956Z,99.99
2018-04-22T00:49:21.302Z,99.99
2018-04-22T00:50:21.436Z,99.99
2018-04-22T00:51:21.722Z,99.99
2018-04-22T00:52:21.523Z,99.99
2018-04-22T00:53:21.818Z,99.99
2018-04-22T00:54:22.148Z,99.99
2018-04-22T00:55:22.710Z,99.99
2018-04-22T00:56:22.711Z,99.99
2018-04-22T00:57:22.880Z,99.99
2018-04-22T00:58:23.159Z,99.99
2018-04-22T00:59:23.318Z,99.99
2018-04-22T01:00:23.654Z,99.99
2018-04-22T01:01:23.777Z,99.99
2018-04-22T01:02:24.187Z,99.99
2018-04-22T01:03:24.253Z,99.99
2018-04-22T01:04:24.413Z,99.99
2018-04-22T01:05:24.419Z,99.99
2018-04-22T01:06:24.909Z,99.99
2018-04-22T01:07:24.699Z,99.99
2018-04-22T01:08:25.106Z,99.99
2018-04-22T01:09:25.124Z,99.99
2018-04-22T01:10:24.986Z,99.99
2018-04-22T01:11:25.568Z,99.99
2018-04-22T01:12:25.998Z,99.99
2018-04-22T01:13:25.971Z,99.99
2018-04-22T01:14:25.902Z,99.99
2018-04-22T01:15:26.431Z,99.99
2018-04-22T01:16:26.568Z,99.99
2018-04-22T01:17:26.886Z,99.99
2018-04-22T01:18:27.278Z,99.99
2018-04-22T01:19:27.417Z,99.99
2018-04-22T01:20:27.279Z,99.99
2018-04-22T01:21:27.914Z,99.99
2018-04-22T01:22:28.317Z,99.99
2018-04-22T01:23:28.389Z,99.99
2018-04-22T01:24:28.761Z,99.99
2018-04-22T01:25:29.181Z,99.99
2018-04-22T01:26:29.221Z,99.99
2018-04-22T01:27:29.284Z,99.99
2018-04-22T01:28:29.078Z,99.99
2018-04-22T01:29:29.360Z,99.99
2018-04-22T01:30:29.559Z,99.99
2018-04-22T01:31:29.725Z,99.99
2018-04-22T01:32:30.233Z,99.99
2018-04-22T01:33:30.284Z,99.99
2018-04-22T01:34:29.979Z,99.99
2018-04-22T01:35:30.318Z,99.99
2018-04-22T01:36:30.729Z,99.99
2018-04-22T01:37:30.761Z,99.99
2018-04-22T01:38:30.792Z,99.99
2018-04-22T01:39:30.925Z,99.99
2018-04-22T01:40:31.078Z,99.99
2018-04-22T01:41:31.326Z,99.99
2018-04-22T01:42:31.483Z,99.99
2018-04-22T01:43:31.337Z,99.99
2018-04-22T01:44:31.988Z,99.99
2018-04-22T01:45:33.108Z,99.99
2018-04-22T01:46:32.355Z,99.99
2018-04-22T01:47:32.571Z,99.99
2018-04-22T01:48:32.614Z,99.99
2018-04-22T01:49:32.795Z,99.99
2018-04-22T01:50:32.516Z,99.99
2018-04-22T01:51:32.821Z,99.99
2018-04-22T01:52:33.013Z,99.99
2018-04-22T01:53:33.079Z,99.99
2018-04-22T01:54:32.788Z,99.99
2018-04-22T01:55:33.453Z,99.99
2018-04-22T01:56:33.853Z,99.99
2018-04-22T01:57:34.237Z,99.99
2018-04-22T01:58:34.621Z,99.99
2018-04-22T01:59:34.795Z,99.99
2018-04-22T02:00:34.807Z,99.99
2018-04-22T02:01:35.316Z,99.99
2018-04-22T02:02:35.305Z,99.99
2018-04-22T02:03:35.521Z,99.99
2018-04-22T02:04:35.546Z,99.99
2018-04-22T02:05:36.014Z,99.99
2018-04-22T02:06:36.049Z,99.99
2018-04-22T02:07:36.078Z,99.99
2018-04-22T02:08:36.269Z,99.99
2018-04-22T02:09:36.300Z,99.99
2018-04-22T02:10:36.227Z,99.99
2018-04-22T02:11:36.965Z,99.99
2018-04-22T02:12:36.995Z,99.99
2018-04-22T02:13:36.743Z,99.99
2018-04-22T02:14:36.926Z,99.99
2018-04-22T02:15:37.232Z,99.99
2018-04-22T02:16:37.262Z,99.99
2018-04-22T02:17:37.735Z,99.99
2018-04-22T02:18:37.765Z,99.99
2018-04-22T02:19:37.802Z,99.99
2018-04-22T02:20:37.824Z,99.99
2018-04-22T02:21:38.275Z,99.99
2018-04-22T02:22:38.299Z,99.99
2018-04-22T02:23:38.236Z,99.99
2018-04-22T02:24:38.710Z,99.99
2018-04-22T02:25:38.658Z,99.99
2018-04-22T02:26:38.684Z,99.99
2018-04-22T02:27:39.165Z,99.99
2018-04-22T02:28:39.191Z,99.99
2018-04-22T02:29:39.396Z,99.99
2018-04-22T02:30:39.616Z,99.99
2018-04-22T02:31:39.647Z,99.99
2018-04-22T02:32:40.130Z,99.99
2018-04-22T02:33:40.348Z,99.99
2018-04-22T02:34:40.445Z,99.99
2018-04-22T02:35:40.446Z,99.99
2018-04-22T02:36:40.677Z,99.99
2018-04-22T02:37:40.696Z,99.99
2018-04-22T02:38:40.725Z,99.99
2018-04-22T02:39:41.198Z,99.99
2018-04-22T02:40:41.655Z,99.99
2018-04-22T02:41:41.691Z,99.99
2018-04-22T02:42:41.716Z,99.99
2018-04-22T02:43:41.454Z,99.99
2018-04-22T02:44:41.918Z,99.99
2018-04-22T02:45:42.322Z,99.99
2018-04-22T02:46:42.083Z,99.99
2018-04-22T02:47:42.673Z,99.99
2018-04-22T02:48:42.612Z,99.99
2018-04-22T02:49:42.666Z,99.99
2018-04-22T02:50:42.380Z,99.99
2018-04-22T02:51:43.153Z,99.99
2018-04-22T02:52:43.113Z,99.99
2018-04-22T02:53:43.152Z,99.99
2018-04-22T02:54:43.263Z,99.99
2018-04-22T02:55:42.944Z,99.99
2018-04-22T02:56:44.393Z,99.99
2018-04-22T02:57:43.938Z,99.99
2018-04-22T02:58:44.723Z,99.99
2018-04-22T02:59:44.498Z,99.99
2018-04-22T03:00:45.328Z,99.99
2018-04-22T03:01:45.367Z,99.99
2018-04-22T03:02:45.381Z,99.99
2018-04-22T03:03:45.504Z,99.99
2018-04-22T03:04:45.560Z,99.99
2018-04-22T03:05:45.603Z,99.99
2018-04-22T03:06:45.490Z,99.99
2018-04-22T03:07:45.517Z,99.99
2018-04-22T03:08:44.695Z,99.99
2018-04-22T03:09:44.680Z,99.99
2018-04-22T03:10:44.611Z,99.99
2018-04-22T03:11:44.721Z,99.99
2018-04-22T03:12:44.708Z,99.99
2018-04-22T03:13:45.326Z,99.99
2018-04-22T03:14:45.053Z,99.99
2018-04-22T03:15:45.085Z,99.99
2018-04-22T03:16:45.086Z,99.99
2018-04-22T03:17:45.100Z,99.99
2018-04-22T03:18:45.135Z,99.99
2018-04-22T03:19:45.147Z,99.99
2018-04-22T03:20:45.179Z,99.99
2018-04-22T03:21:45.208Z,99.99
2018-04-22T03:22:45.643Z,99.99
2018-04-22T03:23:45.798Z,99.99
2018-04-22T03:24:46.165Z,99.99
2018-04-22T03:25:45.846Z,99.99
2018-04-22T03:26:46.288Z,99.99
2018-04-22T03:27:46.702Z,99.99
2018-04-22T03:28:46.895Z,99.99
2018-04-22T03:29:46.913Z,99.99
2018-04-22T03:30:46.938Z,99.99
2018-04-22T03:31:47.346Z,99.99
2018-04-22T03:32:47.340Z,99.99
2018-04-22T03:33:47.228Z,99.99
2018-04-22T03:34:47.634Z,99.99
2018-04-22T03:35:47.661Z,99.99
2018-04-22T03:36:47.694Z,99.99
2018-04-22T03:37:47.836Z,99.99
2018-04-22T03:38:48.079Z,99.99
2018-04-22T03:39:48.360Z,99.99
2018-04-22T03:40:48.503Z,99.99
2018-04-22T03:41:48.901Z,99.99
2018-04-22T03:42:48.954Z,99.99
2018-04-22T03:43:49.161Z,99.99
2018-04-22T03:44:49.554Z,99.99
2018-04-22T03:45:49.706Z,99.99
2018-04-22T03:46:49.747Z,99.99
2018-04-22T03:47:49.764Z,99.99
2018-04-22T03:48:50.102Z,99.99
2018-04-22T03:49:50.498Z,99.99
2018-04-22T03:50:50.535Z,99.99
2018-04-22T03:51:50.557Z,99.99
2018-04-22T03:52:50.613Z,99.99
2018-04-22T03:53:50.549Z,99.99
2018-04-22T03:54:51.101Z,99.99
2018-04-22T03:55:51.131Z,99.99
2018-04-22T03:56:51.167Z,99.99
2018-04-22T03:57:51.601Z,99.99
2018-04-22T03:58:51.508Z,99.99
2018-04-22T03:59:51.785Z,99.99
2018-04-22T04:00:52.263Z,99.99
2018-04-22T04:01:52.684Z,99.99
2018-04-22T04:02:52.846Z,99.99
2018-04-22T04:03:52.959Z,99.99
2018-04-22T04:04:53.061Z,99.99
2018-04-22T04:05:53.737Z,99.99
2018-04-22T04:06:53.903Z,99.99
2018-04-22T04:07:53.767Z,99.99
2018-04-22T04:08:54.342Z,99.99
2018-04-22T04:09:54.474Z,99.99
2018-04-22T04:10:54.454Z,99.99
2018-04-22T04:11:54.757Z,99.99
2018-04-22T04:12:54.896Z,99.99
2018-04-22T04:13:55.743Z,99.99
2018-04-22T04:14:55.690Z,99.99
2018-04-22T04:15:56.020Z,99.99
2018-04-22T04:16:55.765Z,99.99
2018-04-22T04:17:56.072Z,99.99
2018-04-22T04:18:56.108Z,99.99
2018-04-22T04:19:55.944Z,99.99
2018-04-22T04:20:56.226Z,99.99
2018-04-22T04:21:56.491Z,99.99
2018-04-22T04:22:56.676Z,99.99
2018-04-22T04:23:57.085Z,99.99
2018-04-22T04:24:57.245Z,99.99
2018-04-22T04:25:57.001Z,99.99
2018-04-22T04:26:57.400Z,99.99
2018-04-22T04:27:57.806Z,99.99
2018-04-22T04:28:57.910Z,99.99
2018-04-22T04:29:58.567Z,99.99
2018-04-22T04:30:58.606Z,99.99
2018-04-22T04:31:58.994Z,99.99
2018-04-22T04:32:59.112Z,99.99
2018-04-22T04:33:59.407Z,99.99
2018-04-22T04:34:59.434Z,99.99
2018-04-22T04:36:00.028Z,99.99
2018-04-22T04:37:00.053Z,99.99
2018-04-22T04:37:59.971Z,99.99
2018-04-22T04:39:00.365Z,99.99
2018-04-22T04:40:00.607Z,99.99
2018-04-22T04:41:00.418Z,99.99
2018-04-22T04:42:00.582Z,99.99
2018-04-22T04:43:00.606Z,99.99
2018-04-22T04:44:00.713Z,99.99
2018-04-22T04:45:01.198Z,99.99
2018-04-22T04:46:01.145Z,99.99
2018-04-22T04:47:01.024Z,99.99
2018-04-22T04:48:01.297Z,99.99
2018-04-22T04:49:01.319Z,99.99
2018-04-22T04:50:01.418Z,99.99
2018-04-22T04:51:01.379Z,99.99
2018-04-22T04:52:01.410Z,99.99
2018-04-22T04:53:01.570Z,99.99
2018-04-22T04:54:01.636Z,99.99
2018-04-22T04:55:02.044Z,99.99
2018-04-22T04:56:02.077Z,99.99
2018-04-22T04:57:02.199Z,99.99
2018-04-22T04:58:02.602Z,99.99
2018-04-22T04:59:02.749Z,99.99
2018-04-22T05:00:03.660Z,99.99
2018-04-22T05:01:03.142Z,99.99
2018-04-22T05:02:03.345Z,99.99
2018-04-22T05:03:03.675Z,99.99
2018-04-22T05:04:03.654Z,99.99
2018-04-22T05:05:03.506Z,99.99
2018-04-22T05:06:03.555Z,99.99
2018-04-22T05:07:03.828Z,99.99
2018-04-22T05:08:03.969Z,99.99
2018-04-22T05:09:04.415Z,99.99
2018-04-22T05:10:04.295Z,99.99
2018-04-22T05:11:04.726Z,99.99
2018-04-22T05:12:04.468Z,99.99
2018-04-22T05:13:04.590Z,99.99
2018-04-22T05:14:05.277Z,99.99
2018-04-22T05:15:05.302Z,99.99
2018-04-22T05:16:05.052Z,99.99
2018-04-22T05:17:05.714Z,99.99
2018-04-22T05:18:05.754Z,99.99
2018-04-22T05:19:05.975Z,99.99
2018-04-22T05:20:05.955Z,99.99
2018-04-22T05:21:06.375Z,99.99
2018-04-22T05:22:06.413Z,99.55
2018-04-22T05:23:06.448Z,98.18
2018-04-22T05:24:06.583Z,97.27
2018-04-22T05:25:06.675Z,95.84
2018-04-22T05:26:07.080Z,93.88
2018-04-22T05:27:07.091Z,92.5
2018-04-22T05:28:07.141Z,91.55
2018-04-22T05:29:07.159Z,89.97
2018-04-22T05:30:07.607Z,88.48
2018-04-22T05:31:07.766Z,87.05
2018-04-22T05:32:07.781Z,86.71
2018-04-22T05:33:07.527Z,85.41
2018-04-22T05:34:07.947Z,82.06
2018-04-22T05:35:07.599Z,79.89
2018-04-22T05:36:07.671Z,77.38
2018-04-22T05:37:08.327Z,76.65
2018-04-22T05:38:08.360Z,75.35
2018-04-22T05:39:08.486Z,73.81
2018-04-22T05:40:08.864Z,73.04
2018-04-22T05:41:08.904Z,72.12
2018-04-22T05:42:08.905Z,70.72
2018-04-22T05:43:08.952Z,69.6
2018-04-22T05:44:08.733Z,67.99
2018-04-22T05:45:09.013Z,67.03
2018-04-22T05:46:09.146Z,66.39
2018-04-22T05:47:09.171Z,64.98
2018-04-22T05:48:09.193Z,63.85
2018-04-22T05:49:09.564Z,62.35
2018-04-22T05:50:09.606Z,61.58
2018-04-22T05:51:10.013Z,60.83
2018-04-22T05:52:09.778Z,59.61
2018-04-22T05:53:10.158Z,58.55
2018-04-22T05:54:10.166Z,58.1
2018-04-22T05:55:10.311Z,58.58
2018-04-22T05:56:10.262Z,58.19
2018-04-22T05:57:10.479Z,58.29
2018-04-22T05:58:10.474Z,57.81
2018-04-22T05:59:10.567Z,57.32
2018-04-22T06:00:11.732Z,57.04
2018-04-22T06:01:10.587Z,57.23
2018-04-22T06:02:10.664Z,57.26
2018-04-22T06:03:10.647Z,56.13
2018-04-22T06:04:11.368Z,55.07
2018-04-22T06:05:11.000Z,54.9
2018-04-22T06:06:11.429Z,54.99
2018-04-22T06:07:11.581Z,53.47
2018-04-22T06:08:11.425Z,53.47
2018-04-22T06:09:11.735Z,52.92
2018-04-22T06:10:12.416Z,52
2018-04-22T06:11:12.234Z,50.77
2018-04-22T06:12:12.479Z,49.63
2018-04-22T06:13:12.509Z,49.75
2018-04-22T06:14:12.570Z,49
2018-04-22T06:15:12.803Z,47.98
2018-04-22T06:16:13.334Z,46.55
2018-04-22T06:17:13.414Z,45.98
2018-04-22T06:18:12.829Z,46.18
2018-04-22T06:19:14.156Z,46.08
2018-04-22T06:20:13.586Z,45.52
2018-04-22T06:21:13.876Z,45.52
2018-04-22T06:22:14.094Z,45.14
2018-04-22T06:23:13.673Z,44.74
2018-04-22T06:24:14.188Z,45.01
2018-04-22T06:25:14.179Z,45.01
2018-04-22T06:26:13.962Z,45.01
2018-04-22T06:27:14.071Z,44.84
2018-04-22T06:28:14.648Z,43.87
2018-04-22T06:29:14.581Z,44.06
2018-04-22T06:30:14.490Z,43.58
2018-04-22T06:31:15.152Z,43.3
2018-04-22T06:32:15.182Z,43.21
2018-04-22T06:33:14.943Z,43.3
2018-04-22T06:34:15.074Z,43.5
2018-04-22T06:35:15.481Z,42.55
2018-04-22T06:36:15.286Z,41.69
2018-04-22T06:37:15.543Z,41.89
2018-04-22T06:38:15.984Z,42.45
2018-04-22T06:39:16.072Z,42.65
2018-04-22T06:40:16.155Z,42.38
2018-04-22T06:41:16.094Z,41.61
2018-04-22T06:42:16.114Z,41.13
2018-04-22T06:43:16.219Z,40.86
2018-04-22T06:44:16.206Z,41.07
2018-04-22T06:45:15.972Z,40.5
2018-04-22T06:46:16.410Z,40.6
2018-04-22T06:47:16.311Z,39.94
2018-04-22T06:48:16.325Z,39.08
2018-04-22T06:49:16.808Z,38.48
2018-04-22T06:50:17.053Z,39.72
2018-04-22T06:51:16.600Z,39.37
2018-04-22T06:52:16.916Z,38.89
2018-04-22T06:53:16.959Z,39.28
2018-04-22T06:54:17.159Z,38.9
2018-04-22T06:55:16.994Z,38.51
2018-04-22T06:56:17.059Z,38.42
2018-04-22T06:57:17.505Z,38.43
2018-04-22T06:58:17.523Z,38.65
2018-04-22T06:59:17.587Z,39.25
2018-04-22T07:00:20.778Z,37.54
2018-04-22T07:01:18.458Z,35.7
2018-04-22T07:02:18.493Z,36.09
2018-04-22T07:03:18.498Z,34.93
2018-04-22T07:04:18.702Z,36.18
2018-04-22T07:05:19.024Z,36.53
2018-04-22T07:06:18.796Z,36.72
2018-04-22T07:07:19.100Z,36.63
2018-04-22T07:08:19.134Z,37.73
2018-04-22T07:09:19.183Z,35.41
2018-04-22T07:10:19.227Z,35.31
2018-04-22T07:11:19.769Z,35.8
2018-04-22T07:12:19.683Z,35.34
2018-04-22T07:13:19.741Z,34.67
2018-04-22T07:14:20.391Z,34.38
2018-04-22T07:15:20.795Z,34.47
2018-04-22T07:16:21.237Z,34.74
2018-04-22T07:17:21.733Z,35.03
2018-04-22T07:18:21.705Z,35.13
2018-04-22T07:19:21.748Z,34.36
2018-04-22T07:20:21.998Z,34.46
2018-04-22T07:21:21.833Z,34.66
2018-04-22T07:22:22.467Z,33.89
2018-04-22T07:23:21.729Z,33.91
2018-04-22T07:24:21.997Z,33.89
2018-04-22T07:25:22.007Z,34.18
2018-04-22T07:26:22.136Z,34.26
2018-04-22T07:27:22.479Z,34.74
2018-04-22T07:28:22.729Z,34.62
2018-04-22T07:29:22.801Z,35.76
2018-04-22T07:30:22.973Z,35.19
2018-04-22T07:31:22.867Z,35.1
2018-04-22T07:32:22.637Z,35.23
2018-04-22T07:33:23.245Z,34.83
2018-04-22T07:34:23.002Z,34.75
2018-04-22T07:35:23.648Z,34.18
2018-04-22T07:36:23.478Z,33.8
2018-04-22T07:37:23.710Z,34.01
2018-04-22T07:38:23.770Z,32.86
2018-04-22T07:39:23.788Z,32.79
2018-04-22T07:40:23.550Z,32.41
2018-04-22T07:41:23.869Z,32.92
2018-04-22T07:42:24.129Z,32.14
2018-04-22T07:43:24.221Z,31.67
2018-04-22T07:44:24.405Z,31.96
2018-04-22T07:45:24.651Z,31.7
2018-04-22T07:46:24.644Z,31.01
2018-04-22T07:47:24.717Z,30.94
2018-04-22T07:48:24.653Z,30.82
2018-04-22T07:49:25.151Z,30.74
2018-04-22T07:50:25.238Z,30.24
2018-04-22T07:51:25.141Z,30.44
2018-04-22T07:52:25.639Z,29.77
2018-04-22T07:53:26.089Z,30.06
2018-04-22T07:54:25.565Z,30.16
2018-04-22T07:55:26.268Z,30.64
2018-04-22T07:56:25.923Z,30.24
2018-04-22T07:57:26.242Z,31.2
2018-04-22T07:58:26.371Z,31.01
2018-04-22T07:59:26.452Z,31.32
2018-04-22T08:00:27.085Z,30.55
2018-04-22T08:01:28.050Z,29.99
2018-04-22T08:02:26.836Z,30.08
2018-04-22T08:03:26.392Z,30.18
2018-04-22T08:04:26.862Z,31.05
2018-04-22T08:05:27.038Z,30.88
2018-04-22T08:06:26.901Z,29.23
2018-04-22T08:07:26.716Z,28.93
2018-04-22T08:08:27.352Z,29.02
2018-04-22T08:09:26.864Z,29.21
2018-04-22T08:10:26.975Z,29.11
2018-04-22T08:11:27.387Z,29.13
2018-04-22T08:12:27.333Z,29.39
2018-04-22T08:13:26.845Z,29.77
2018-04-22T08:14:26.994Z,29.09
2018-04-22T08:15:26.934Z,29.47
2018-04-22T08:16:26.973Z,30.43
2018-04-22T08:17:27.199Z,30.74
2018-04-22T08:18:26.972Z,30.41
2018-04-22T08:19:27.002Z,31.48
2018-04-22T08:20:27.766Z,31.75
2018-04-22T08:21:27.967Z,32.32
2018-04-22T08:22:27.938Z,31.76
2018-04-22T08:23:28.214Z,31.19
2018-04-22T08:24:28.153Z,31.1
2018-04-22T08:25:28.235Z,30.92
2018-04-22T08:26:28.207Z,30.08
2018-04-22T08:27:28.436Z,29.5
2018-04-22T08:28:28.409Z,30.68
2018-04-22T08:29:28.352Z,30.19
2018-04-22T08:30:28.398Z,29.91
2018-04-22T08:31:28.390Z,29.11
2018-04-22T08:32:28.935Z,29.43
2018-04-22T08:33:29.229Z,29.43
2018-04-22T08:34:29.355Z,29.58
2018-04-22T08:35:29.346Z,30.19
2018-04-22T08:36:29.388Z,30.04
2018-04-22T08:37:29.433Z,28.94
2018-04-22T08:38:29.697Z,29.14
2018-04-22T08:39:29.613Z,28.94
2018-04-22T08:40:29.645Z,28.75
2018-04-22T08:41:30.738Z,28.99
2018-04-22T08:42:29.684Z,27.42
2018-04-22T08:43:30.230Z,28.42
2018-04-22T08:44:30.295Z,28.32
2018-04-22T08:45:30.321Z,28.2
2018-04-22T08:46:30.344Z,28.39
2018-04-22T08:47:30.917Z,28.18
2018-04-22T08:48:30.995Z,28.77
2018-04-22T08:49:30.756Z,29.06
2018-04-22T08:50:31.176Z,27.78
2018-04-22T08:51:30.844Z,28.56
2018-04-22T08:52:31.761Z,29.16
2018-04-22T08:53:31.360Z,28.99
2018-04-22T08:54:31.810Z,28.11
2018-04-22T08:55:32.192Z,27.91
2018-04-22T08:56:31.930Z,27.24
2018-04-22T08:57:32.038Z,27.55
2018-04-22T08:58:31.705Z,27.17
2018-04-22T08:59:32.246Z,27.08
2018-04-22T09:00:32.639Z,27.05
2018-04-22T09:01:32.196Z,28.12
2018-04-22T09:02:31.860Z,27.64
2018-04-22T09:03:31.911Z,27.64
2018-04-22T09:04:32.671Z,27.95
2018-04-22T09:05:33.231Z,27.87
2018-04-22T09:06:33.202Z,27.32
2018-04-22T09:07:33.279Z,26.23
2018-04-22T09:08:33.548Z,26.06
2018-04-22T09:09:33.766Z,26.61
2018-04-22T09:10:33.806Z,27.08
2018-04-22T09:11:33.842Z,27.78
2018-04-22T09:12:33.883Z,26.79
2018-04-22T09:13:34.513Z,25.92
2018-04-22T09:14:33.959Z,25.52
2018-04-22T09:15:34.919Z,26.1
2018-04-22T09:16:34.421Z,26.61
2018-04-22T09:17:34.453Z,26.5
2018-04-22T09:18:34.449Z,26.87
2018-04-22T09:19:34.697Z,27.37
2018-04-22T09:20:34.557Z,27.11
2018-04-22T09:21:34.525Z,26.31
2018-04-22T09:22:34.828Z,26.57
2018-04-22T09:23:35.132Z,27.04
2018-04-22T09:24:34.871Z,26.5
2018-04-22T09:25:35.623Z,27.44
2018-04-22T09:26:35.689Z,27.51
2018-04-22T09:27:35.933Z,28.34
2018-04-22T09:28:35.932Z,27.58
2018-04-22T09:29:35.978Z,27.12
2018-04-22T09:30:36.015Z,27.44
2018-04-22T09:31:36.050Z,26.73
2018-04-22T09:32:36.093Z,27.1
2018-04-22T09:33:36.342Z,26.99
2018-04-22T09:34:36.397Z,26.99
2018-04-22T09:35:36.712Z,27.5
2018-04-22T09:36:36.809Z,27.52
2018-04-22T09:37:37.130Z,26.27
2018-04-22T09:38:36.830Z,26.2
2018-04-22T09:39:36.894Z,25.52
2018-04-22T09:40:37.129Z,25.49
2018-04-22T09:41:36.862Z,25.77
2018-04-22T09:42:37.198Z,25.86
2018-04-22T09:43:37.342Z,25.18
2018-04-22T09:44:37.899Z,25.65
2018-04-22T09:45:37.037Z,26.15
2018-04-22T09:46:37.381Z,26.57
2018-04-22T09:47:37.510Z,25.7
2018-04-22T09:48:37.543Z,25.61
2018-04-22T09:49:37.631Z,25.81
2018-04-22T09:50:37.454Z,26.37
2018-04-22T09:51:37.677Z,26.64
2018-04-22T09:52:37.988Z,27.2
2018-04-22T09:53:38.505Z,27.37
2018-04-22T09:54:38.280Z,27.84
2018-04-22T09:55:38.060Z,27.36
2018-04-22T09:56:38.658Z,27.4
2018-04-22T09:57:38.485Z,27.41
2018-04-22T09:58:39.140Z,26.93
2018-04-22T09:59:39.180Z,26.74
2018-04-22T10:00:39.880Z,26.35
2018-04-22T10:01:40.217Z,25.74
2018-04-22T10:02:39.287Z,26.23
2018-04-22T10:03:39.394Z,27.2
2018-04-22T10:04:39.158Z,27
2018-04-22T10:05:39.555Z,27.47
2018-04-22T10:06:39.253Z,26.8
2018-04-22T10:07:40.011Z,27.2
2018-04-22T10:08:39.999Z,27.52
2018-04-22T10:09:40.300Z,27.06
2018-04-22T10:10:40.072Z,25.6
2018-04-22T10:11:40.112Z,25.95
2018-04-22T10:12:40.149Z,26.72
2018-04-22T10:13:40.087Z,27.28
2018-04-22T10:14:40.475Z,27.92
2018-04-22T10:15:40.530Z,28.41
2018-04-22T10:16:40.860Z,28.37
2018-04-22T10:17:40.943Z,28.35
2018-04-22T10:18:41.113Z,28.35
2018-04-22T10:19:41.419Z,28.55
2018-04-22T10:20:41.464Z,29.11
2018-04-22T10:21:41.762Z,29.5
2018-04-22T10:22:41.695Z,29.1
2018-04-22T10:23:41.743Z,29.48
2018-04-22T10:24:41.518Z,29.99
2018-04-22T10:25:42.266Z,28.74
2018-04-22T10:26:42.171Z,28.64
2018-04-22T10:27:42.272Z,28.88
2018-04-22T10:28:42.444Z,28.7
2018-04-22T10:29:42.209Z,27.74
2018-04-22T10:30:42.603Z,28.32
2018-04-22T10:31:42.562Z,28.31
2018-04-22T10:32:42.788Z,28.69
2018-04-22T10:33:42.889Z,28.41
2018-04-22T10:34:42.621Z,28
2018-04-22T10:35:42.616Z,29.24
2018-04-22T10:36:43.444Z,29.64
2018-04-22T10:37:43.857Z,28.78
2018-04-22T10:38:43.609Z,28.56
2018-04-22T10:39:43.827Z,29.14
2018-04-22T10:40:43.839Z,28.85
2018-04-22T10:41:44.150Z,29.83
2018-04-22T10:42:44.470Z,29.06
2018-04-22T10:43:43.949Z,29.52
2018-04-22T10:44:44.643Z,30.66
2018-04-22T10:45:44.512Z,31.14
2018-04-22T10:46:44.900Z,30.65
2018-04-22T10:47:45.152Z,30.94
2018-04-22T10:48:45.062Z,31.6
2018-04-22T10:49:45.767Z,31.88
2018-04-22T10:50:45.823Z,32.64
2018-04-22T10:51:46.296Z,33.13
2018-04-22T10:52:46.841Z,31.97
2018-04-22T10:53:46.708Z,32.26
2018-04-22T10:54:46.901Z,33.43
2018-04-22T10:55:47.367Z,32.26
2018-04-22T10:56:47.507Z,32.07
2018-04-22T10:57:47.600Z,32.45
2018-04-22T10:58:47.879Z,33
2018-04-22T10:59:48.148Z,34.38
2018-04-22T11:00:48.163Z,34.69
2018-04-22T11:01:48.503Z,33.82
2018-04-22T11:02:48.301Z,34.51
2018-04-22T11:03:48.704Z,33.13
2018-04-22T11:04:48.298Z,34.3
2018-04-22T11:05:48.777Z,33.41
2018-04-22T11:06:49.011Z,34.75
2018-04-22T11:07:48.832Z,34.44
2018-04-22T11:08:48.605Z,35.76
2018-04-22T11:09:48.899Z,36.61
2018-04-22T11:10:49.340Z,36.98
2018-04-22T11:11:49.360Z,36.59
2018-04-22T11:12:49.498Z,37.45
2018-04-22T11:13:49.405Z,38.22
2018-04-22T11:14:49.453Z,38.71
2018-04-22T11:15:49.930Z,38.51
2018-04-22T11:16:50.346Z,39.2
2018-04-22T11:17:49.692Z,37.26
2018-04-22T11:18:49.728Z,37.62
2018-04-22T11:19:49.821Z,38.2
2018-04-22T11:20:49.535Z,38.2
2018-04-22T11:21:49.854Z,38.1
2018-04-22T11:22:49.886Z,38.67
2018-04-22T11:23:50.030Z,39.53
2018-04-22T11:24:50.224Z,39.41
2018-04-22T11:25:50.017Z,41.15
2018-04-22T11:26:50.654Z,39.1
2018-04-22T11:27:51.315Z,40.35
2018-04-22T11:28:51.476Z,40.42
2018-04-22T11:29:51.619Z,42.82
2018-04-22T11:30:52.048Z,42.91
2018-04-22T11:31:52.048Z,44.18
2018-04-22T11:32:51.772Z,41.86
2018-04-22T11:33:51.981Z,41.75
2018-04-22T11:34:52.318Z,41.94
2018-04-22T11:35:52.051Z,41.75
2018-04-22T11:36:52.380Z,42.53
2018-04-22T11:37:52.228Z,43.96
2018-04-22T11:38:52.727Z,44.74
2018-04-22T11:39:53.415Z,42.87
2018-04-22T11:40:53.481Z,43.24
2018-04-22T11:41:53.263Z,43.8
2018-04-22T11:42:53.550Z,45.24
2018-04-22T11:43:53.590Z,45.31
2018-04-22T11:44:53.622Z,45.89
2018-04-22T11:45:53.956Z,46.07
2018-04-22T11:46:53.698Z,47.42
2018-04-22T11:47:53.752Z,48.2
2018-04-22T11:48:54.019Z,49.92
2018-04-22T11:49:54.186Z,51.28
2018-04-22T11:50:54.233Z,48.85
2018-04-22T11:51:54.263Z,48.83
2018-04-22T11:52:54.306Z,49.02
2018-04-22T11:53:54.502Z,49.41
2018-04-22T11:54:54.991Z,49.51
2018-04-22T11:55:54.815Z,48.52
2018-04-22T11:56:54.811Z,48.13
2018-04-22T11:57:55.095Z,50.07
2018-04-22T11:58:55.655Z,51.52
2018-04-22T11:59:56.428Z,49.77
2018-04-22T12:00:55.747Z,49.85
2018-04-22T12:01:55.799Z,50.14
2018-04-22T12:02:56.729Z,50.43
2018-04-22T12:03:56.515Z,51.68
2018-04-22T12:04:56.613Z,51.5
2018-04-22T12:05:56.325Z,50.98
2018-04-22T12:06:56.098Z,50.89
2018-04-22T12:07:56.402Z,51.08
2018-04-22T12:08:56.197Z,51.18
2018-04-22T12:09:56.716Z,51.18
2018-04-22T12:10:56.988Z,51.47
2018-04-22T12:11:56.857Z,51.76
2018-04-22T12:12:56.831Z,51.08
2018-04-22T12:13:57.552Z,51.06
2018-04-22T12:14:57.569Z,51.47
2018-04-22T12:15:57.596Z,52.99
2018-04-22T12:16:57.717Z,51.18
2018-04-22T12:17:58.437Z,51.73
2018-04-22T12:18:58.486Z,51.76
2018-04-22T12:19:58.498Z,51.64
2018-04-22T12:20:58.789Z,52.02
2018-04-22T12:21:58.865Z,50.28
2018-04-22T12:22:58.628Z,51.15
2018-04-22T12:23:58.648Z,51.06
2018-04-22T12:24:59.418Z,51.06
2018-04-22T12:25:59.258Z,52.22
2018-04-22T12:26:59.549Z,52.41
2018-04-22T12:27:59.583Z,52.99
2018-04-22T12:28:59.702Z,53.45
2018-04-22T12:30:00.018Z,54.32
2018-04-22T12:31:00.536Z,53.06
2018-04-22T12:32:01.556Z,52.09
2018-04-22T12:33:01.533Z,52.09
2018-04-22T12:34:01.216Z,52.19
2018-04-22T12:35:00.982Z,52
2018-04-22T12:36:01.021Z,52.29
2018-04-22T12:37:01.647Z,52.09
2018-04-22T12:38:01.445Z,52.7
2018-04-22T12:39:01.490Z,52.8
2018-04-22T12:40:01.505Z,53.47
2018-04-22T12:41:01.685Z,55.31
2018-04-22T12:42:01.448Z,53.86
2018-04-22T12:43:02.205Z,53.47
2018-04-22T12:44:02.016Z,56.02
2018-04-22T12:45:02.287Z,56.98
2018-04-22T12:46:02.317Z,54.85
2018-04-22T12:47:02.748Z,55.05
2018-04-22T12:48:02.758Z,54.27
2018-04-22T12:49:02.805Z,54.49
2018-04-22T12:50:02.844Z,53.91
2018-04-22T12:51:02.605Z,54.49
2018-04-22T12:52:03.035Z,55.27
2018-04-22T12:53:03.260Z,55.85
2018-04-22T12:54:03.414Z,54.98
2018-04-22T12:55:03.597Z,55.94
2018-04-22T12:56:04.044Z,54.59